Betancuria — EAMH — position and weather

sailwx.info

Track history (hours):
 
Tides and Currents Weather Stations Pressure Air Temp Water Temp Dewpoint Dewpoint Depression Visibility Wind Speed Wind Dir Waves Ship Positions

Betancuria

Last reported at 2016-Jul-25 08:33 UTC. Time now 2016-Jul-25 10:06 UTC.
Position N 50°23' E 000°14'.

Length 141 m; draft 4.7 m.

Type: Ship. MMSI: 224471000.

Date/timePositionNaut miles runAvg speedWind from/ knotsBaromVisibWave heightAir tempDewpointWater temp
2016-Jul-25 08:33N 50°23' E 000°14'10 9.8
2016-Jul-25 07:33N 50°21' W 000°01'9 9.4
2016-Jul-25 06:33N 50°18' W 000°15'17 8.8
2016-Jul-25 04:33N 50°13' W 000°41'9 9.2
2016-Jul-25 03:33N 50°11' W 000°55'6612.8
2016-Jul-24 22:24N 49°53' W 002°34'1113.3
2016-Jul-24 21:34N 49°49' W 002°50'1312.6
2016-Jul-24 20:33N 49°42' W 003°07'1712.1
2016-Jul-24 19:09N 49°33' W 003°30'2111.4
2016-Jul-24 17:17N 49°23' W 003°58'67 9.8
2016-Jul-24 10:30N 48°49' W 005°26'5511.2
2016-Jul-24 05:33N 48°02' W 006°11'2512.4
2016-Jul-24 03:33N 47°40' W 006°28'4710.8
2016-Jul-23 23:11N 46°58' W 006°60'49010.0
2016-Jul-21 22:05N 39°05' W 009°51'1810.1
2016-Jul-21 20:16N 38°47' W 009°52'810.4
2016-Jul-21 19:32N 38°39' W 009°50'1010.6
2016-Jul-21 18:33N 38°29' W 009°46'1110.5
2016-Jul-21 17:32N 38°19' W 009°43'1010.5
2016-Jul-21 16:33N 38°09' W 009°41'10 9.8
2016-Jul-21 15:33N 37°59' W 009°38'10 9.8
2016-Jul-21 14:32N 37°50' W 009°35'1010.1
2016-Jul-21 13:33N 37°40' W 009°32'1010.2
2016-Jul-21 12:33N 37°30' W 009°28'10 9.6
2016-Jul-21 11:32N 37°21' W 009°25'1210.0
2016-Jul-21 10:18N 37°08' W 009°23'28 9.5
2016-Jul-21 07:21N 36°44' W 009°05'910.0
2016-Jul-21 06:25N 36°42' W 008°54'910.2
2016-Jul-21 05:32N 36°39' W 008°43'1210.6
2016-Jul-21 04:23N 36°36' W 008°28'910.8
2016-Jul-21 03:33N 36°34' W 008°17'1010.3
2016-Jul-21 02:33N 36°31' W 008°05'1110.2
2016-Jul-21 01:30N 36°28' W 007°52'158146.3
2016-Jul-21 00:25N 36°25' W 004°36'5 3.9
2016-Jul-20 23:07N 36°27' W 004°30'0 0.0
2016-Jul-20 21:26N 36°27' W 004°30'2 1.8
2016-Jul-20 20:26N 36°28' W 004°28'7 6.7
2016-Jul-20 19:24N 36°25' W 004°36'5 2.4
2016-Jul-20 17:16N 36°27' W 004°30'0 0.0
2016-Jul-20 16:25N 36°27' W 004°30'6131.0
2016-Jul-20 14:27N 35°58' W 005°37'1010.8
2016-Jul-20 13:33N 36°01' W 005°26'5240.0
2016-Jul-20 12:15N 36°27' W 004°30'0 0.0
2016-Jul-20 11:25N 36°27' W 004°30'5 4.3
2016-Jul-20 10:13N 36°25' W 004°36'128 9.8
2016-Jul-19 21:03N 36°37' W 001°57'711.0
2016-Jul-19 20:25N 36°42' W 001°50'1011.1
2016-Jul-19 19:30N 36°49' W 001°41'1111.4
2016-Jul-19 18:33N 36°55' W 001°30'1211.8
2016-Jul-19 17:33N 37°03' W 001°19'1111.3
2016-Jul-19 16:33N 37°11' W 001°09'1111.2
2016-Jul-19 15:32N 37°18' W 000°58'1111.3
2016-Jul-19 14:33N 37°26' W 000°47'1211.1
2016-Jul-19 13:29N 37°33' W 000°36'1010.9
2016-Jul-19 12:33N 37°41' W 000°28'2311.0
2016-Jul-19 10:29N 38°00' W 000°12'1010.9
2016-Jul-19 09:33N 38°09' W 000°05'1411.0
2016-Jul-19 08:17N 38°20' E 000°04'9810.8
2016-Jul-18 23:13N 39°56' E 000°30'1311.3
2016-Jul-18 22:03N 40°08' E 000°38'711.2
2016-Jul-18 21:26N 40°14' E 000°42'1010.9
2016-Jul-18 20:33N 40°23' E 000°48'1111.0
2016-Jul-18 19:31N 40°33' E 000°54'1211.2
2016-Jul-18 18:27N 40°44' E 001°00'1511.0
2016-Jul-18 17:07N 40°57' E 001°08'610.9
2016-Jul-18 16:32N 41°03' E 001°12'4 0.7
2016-Jul-18 11:30N 41°06' E 001°14'0 0.0
2016-Jul-17 22:12N 41°06' E 001°14'0 0.0
2016-Jul-17 21:30N 41°06' E 001°14'0 0.0
2016-Jul-17 20:30N 41°06' E 001°14'0 0.0
2016-Jul-17 16:30N 41°06' E 001°14'0 0.0
2016-Jul-17 15:24N 41°06' E 001°14'0 0.0
2016-Jul-17 08:30N 41°06' E 001°14'0 0.0
2016-Jul-17 07:30N 41°06' E 001°14'1 0.0
2016-Jul-15 20:15N 41°05' E 001°16'0 0.0
2016-Jul-15 19:33N 41°05' E 001°16'0 0.0
2016-Jul-15 18:27N 41°05' E 001°16'0 0.0
2016-Jul-15 16:30N 41°05' E 001°16'  
Track history (hours):
 
Tides and Currents Weather Stations Pressure Air Temp Water Temp Dewpoint Dewpoint Depression Visibility Wind Speed Wind Dir Waves Ship Positions

Betancuria

Last reported at 2016-Jul-25 08:33 UTC. Time now 2016-Jul-25 10:06 UTC.
Position N 50°23' E 000°14'.

Length 141 m; draft 4.7 m.

Type: Ship. MMSI: 224471000.

Date/timePositionNaut miles runAvg speedWind from/ knotsBaromVisibWave heightAir tempDewpointWater temp
2016-Jul-25 08:33N 50°23' E 000°14'10 9.8
2016-Jul-25 07:33N 50°21' W 000°01'9 9.4
2016-Jul-25 06:33N 50°18' W 000°15'17 8.8
2016-Jul-25 04:33N 50°13' W 000°41'9 9.2
2016-Jul-25 03:33N 50°11' W 000°55'6612.8
2016-Jul-24 22:24N 49°53' W 002°34'1113.3
2016-Jul-24 21:34N 49°49' W 002°50'1312.6
2016-Jul-24 20:33N 49°42' W 003°07'1712.1
2016-Jul-24 19:09N 49°33' W 003°30'2111.4
2016-Jul-24 17:17N 49°23' W 003°58'67 9.8
2016-Jul-24 10:30N 48°49' W 005°26'5511.2
2016-Jul-24 05:33N 48°02' W 006°11'2512.4
2016-Jul-24 03:33N 47°40' W 006°28'4710.8
2016-Jul-23 23:11N 46°58' W 006°60'49010.0
2016-Jul-21 22:05N 39°05' W 009°51'1810.1
2016-Jul-21 20:16N 38°47' W 009°52'810.4
2016-Jul-21 19:32N 38°39' W 009°50'1010.6
2016-Jul-21 18:33N 38°29' W 009°46'1110.5
2016-Jul-21 17:32N 38°19' W 009°43'1010.5
2016-Jul-21 16:33N 38°09' W 009°41'10 9.8
2016-Jul-21 15:33N 37°59' W 009°38'10 9.8
2016-Jul-21 14:32N 37°50' W 009°35'1010.1
2016-Jul-21 13:33N 37°40' W 009°32'1010.2
2016-Jul-21 12:33N 37°30' W 009°28'10 9.6
2016-Jul-21 11:32N 37°21' W 009°25'1210.0
2016-Jul-21 10:18N 37°08' W 009°23'28 9.5
2016-Jul-21 07:21N 36°44' W 009°05'910.0
2016-Jul-21 06:25N 36°42' W 008°54'910.2
2016-Jul-21 05:32N 36°39' W 008°43'1210.6
2016-Jul-21 04:23N 36°36' W 008°28'910.8
2016-Jul-21 03:33N 36°34' W 008°17'1010.3
2016-Jul-21 02:33N 36°31' W 008°05'1110.2
2016-Jul-21 01:30N 36°28' W 007°52'158146.3
2016-Jul-21 00:25N 36°25' W 004°36'5 3.9
2016-Jul-20 23:07N 36°27' W 004°30'0 0.0
2016-Jul-20 21:26N 36°27' W 004°30'2 1.8
2016-Jul-20 20:26N 36°28' W 004°28'7 6.7
2016-Jul-20 19:24N 36°25' W 004°36'5 2.4
2016-Jul-20 17:16N 36°27' W 004°30'0 0.0
2016-Jul-20 16:25N 36°27' W 004°30'6131.0
2016-Jul-20 14:27N 35°58' W 005°37'1010.8
2016-Jul-20 13:33N 36°01' W 005°26'5240.0
2016-Jul-20 12:15N 36°27' W 004°30'0 0.0
2016-Jul-20 11:25N 36°27' W 004°30'5 4.3
2016-Jul-20 10:13N 36°25' W 004°36'128 9.8
2016-Jul-19 21:03N 36°37' W 001°57'711.0
2016-Jul-19 20:25N 36°42' W 001°50'1011.1
2016-Jul-19 19:30N 36°49' W 001°41'1111.4
2016-Jul-19 18:33N 36°55' W 001°30'1211.8
2016-Jul-19 17:33N 37°03' W 001°19'1111.3
2016-Jul-19 16:33N 37°11' W 001°09'1111.2
2016-Jul-19 15:32N 37°18' W 000°58'1111.3
2016-Jul-19 14:33N 37°26' W 000°47'1211.1
2016-Jul-19 13:29N 37°33' W 000°36'1010.9
2016-Jul-19 12:33N 37°41' W 000°28'2311.0
2016-Jul-19 10:29N 38°00' W 000°12'1010.9
2016-Jul-19 09:33N 38°09' W 000°05'1411.0
2016-Jul-19 08:17N 38°20' E 000°04'9810.8
2016-Jul-18 23:13N 39°56' E 000°30'1311.3
2016-Jul-18 22:03N 40°08' E 000°38'711.2
2016-Jul-18 21:26N 40°14' E 000°42'1010.9
2016-Jul-18 20:33N 40°23' E 000°48'1111.0
2016-Jul-18 19:31N 40°33' E 000°54'1211.2
2016-Jul-18 18:27N 40°44' E 001°00'1511.0
2016-Jul-18 17:07N 40°57' E 001°08'610.9
2016-Jul-18 16:32N 41°03' E 001°12'4 0.7
2016-Jul-18 11:30N 41°06' E 001°14'0 0.0
2016-Jul-17 22:12N 41°06' E 001°14'0 0.0
2016-Jul-17 21:30N 41°06' E 001°14'0 0.0
2016-Jul-17 20:30N 41°06' E 001°14'0 0.0
2016-Jul-17 16:30N 41°06' E 001°14'0 0.0
2016-Jul-17 15:24N 41°06' E 001°14'0 0.0
2016-Jul-17 08:30N 41°06' E 001°14'0 0.0
2016-Jul-17 07:30N 41°06' E 001°14'1 0.0
2016-Jul-15 20:15N 41°05' E 001°16'0 0.0
2016-Jul-15 19:33N 41°05' E 001°16'0 0.0
2016-Jul-15 18:27N 41°05' E 001°16'0 0.0
2016-Jul-15 16:30N 41°05' E 001°16'  

Dump ship's entire track history